Time;durP1;ratioP1;P1;durP2;ratioP2;P2;SDS_P1;SDS_P2;PMS_P1;PMS_P2;Temp;Humidity;BMP_temperature;BMP_pressure;BME280_temperature;BME280_humidity;BME280_pressure;Samples;Min_cycle;Max_cycle;Signal;HPM_P1;HPM_P2
2023/05/07 00:00:29;;;;;;;8.83;6.00;;;;;;;;;;5003027;28;20760;-79
2023/05/07 00:02:58;;;;;;;7.60;5.90;;;;;;;;;;5004435;28;20897;-81
2023/05/07 00:05:23;;;;;;;8.40;5.17;;;;;;;;;;5002727;28;20444;-80
2023/05/07 00:07:52;;;;;;;8.53;5.20;;;;;;;;;;5003154;28;20428;-80
2023/05/07 00:10:18;;;;;;;6.13;5.00;;;;;;;;;;5004562;28;20811;-81
2023/05/07 00:12:44;;;;;;;6.63;4.00;;;;;;;;;;5003158;28;20470;-80
2023/05/07 00:15:10;;;;;;;8.20;6.03;;;;;;;;;;5002526;28;20188;-80
2023/05/07 00:17:36;;;;;;;15.13;6.63;;;;;;;;;;4986671;28;20419;-80
2023/05/07 00:20:03;;;;;;;8.67;5.80;;;;;;;;;;5002157;28;20433;-81
2023/05/07 00:22:30;;;;;;;8.87;5.30;;;;;;;;;;5002822;28;20589;-80
2023/05/07 00:24:55;;;;;;;5.60;3.70;;;;;;;;;;4964489;28;20787;-79
2023/05/07 00:27:22;;;;;;;7.00;5.23;;;;;;;;;;5002304;28;20427;-81
2023/05/07 00:29:48;;;;;;;6.43;3.97;;;;;;;;;;5002813;28;20444;-79
2023/05/07 00:32:13;;;;;;;5.43;4.50;;;;;;;;;;4996359;28;21066;-80
2023/05/07 00:34:39;;;;;;;9.30;5.40;;;;;;;;;;4975905;28;20422;-80
2023/05/07 00:37:07;;;;;;;6.80;4.00;;;;;;;;;;4993864;28;20414;-83
2023/05/07 00:39:33;;;;;;;6.47;5.37;;;;;;;;;;4993594;28;20422;-85
2023/05/07 00:42:00;;;;;;;5.90;4.00;;;;;;;;;;4993651;28;20441;-83
2023/05/07 00:44:26;;;;;;;8.10;5.23;;;;;;;;;;4993808;28;20411;-88
2023/05/07 00:46:52;;;;;;;7.50;5.13;;;;;;;;;;4993785;28;20428;-82
2023/05/07 00:49:18;;;;;;;6.13;4.30;;;;;;;;;;4993349;28;20769;-81
2023/05/07 00:51:45;;;;;;;5.07;3.57;;;;;;;;;;4993622;28;20556;-84
2023/05/07 00:54:11;;;;;;;7.77;4.33;;;;;;;;;;4985825;28;20474;-81
2023/05/07 00:56:37;;;;;;;6.43;4.93;;;;;;;;;;4993629;28;20422;-80
2023/05/07 00:59:03;;;;;;;6.80;4.27;;;;;;;;;;4993679;28;20883;-81
2023/05/07 01:01:29;;;;;;;5.30;3.97;;;;;;;;;;4992403;28;20427;-84
2023/05/07 01:03:56;;;;;;;4.80;3.30;;;;;;;;;;4993332;28;20772;-80
2023/05/07 01:06:23;;;;;;;8.57;4.93;;;;;;;;;;4993712;28;20803;-82
2023/05/07 01:08:50;;;;;;;5.90;4.90;;;;;;;;;;4993574;28;20407;-80
2023/05/07 01:11:17;;;;;;;10.50;5.23;;;;;;;;;;4993455;28;20460;-80
2023/05/07 01:13:43;;;;;;;6.50;4.07;;;;;;;;;;4992336;28;20484;-79
2023/05/07 01:16:10;;;;;;;7.03;5.17;;;;;;;;;;4993556;28;20820;-81
2023/05/07 01:18:36;;;;;;;6.20;3.90;;;;;;;;;;4993223;28;20429;-80
2023/05/07 01:21:05;;;;;;;5.13;3.63;;;;;;;;;;4992484;28;20486;-81
2023/05/07 01:23:31;;;;;;;6.40;4.33;;;;;;;;;;4993387;28;20501;-81
2023/05/07 01:25:57;;;;;;;4.63;3.03;;;;;;;;;;4993338;28;20449;-82
2023/05/07 01:28:23;;;;;;;5.00;3.70;;;;;;;;;;4993461;28;20829;-81
2023/05/07 01:30:57;;;;;;;6.17;4.07;;;;;;;;;;4993244;28;20408;-83
2023/05/07 01:33:24;;;;;;;5.50;3.40;;;;;;;;;;4993011;28;20943;-83
2023/05/07 01:35:56;;;;;;;4.50;2.90;;;;;;;;;;4987057;28;20471;-84
2023/05/07 01:38:23;;;;;;;6.20;3.37;;;;;;;;;;4983277;28;20997;-82
2023/05/07 01:40:49;;;;;;;5.30;3.80;;;;;;;;;;5012837;28;20615;-86
2023/05/07 01:43:15;;;;;;;4.53;3.63;;;;;;;;;;5012535;28;20436;-81
2023/05/07 01:45:41;;;;;;;5.07;4.03;;;;;;;;;;5012696;28;20413;-83
2023/05/07 01:48:08;;;;;;;6.20;4.20;;;;;;;;;;5012730;28;20915;-88
2023/05/07 01:50:34;;;;;;;4.80;3.47;;;;;;;;;;5012872;28;20492;-82
2023/05/07 01:53:02;;;;;;;8.83;4.30;;;;;;;;;;5017841;28;20875;-80
2023/05/07 01:55:28;;;;;;;5.40;3.03;;;;;;;;;;5036181;28;20408;-80
2023/05/07 01:57:54;;;;;;;5.27;4.33;;;;;;;;;;5036008;28;20485;-81
2023/05/07 02:00:20;;;;;;;5.60;4.23;;;;;;;;;;5036121;28;20416;-80
2023/05/07 02:02:46;;;;;;;6.73;5.20;;;;;;;;;;5035979;28;20806;-81
2023/05/07 02:05:12;;;;;;;6.37;4.60;;;;;;;;;;5017880;28;20421;-80
2023/05/07 02:07:37;;;;;;;4.83;3.37;;;;;;;;;;5035928;28;20634;-79
2023/05/07 02:10:04;;;;;;;6.43;4.37;;;;;;;;;;5035875;28;20416;-83
2023/05/07 02:12:30;;;;;;;5.43;4.00;;;;;;;;;;5035713;28;20474;-80
2023/05/07 02:14:56;;;;;;;6.57;4.97;;;;;;;;;;5035807;28;20404;-80
2023/05/07 02:17:22;;;;;;;8.10;5.17;;;;;;;;;;5035756;28;20777;-81
2023/05/07 02:19:48;;;;;;;7.60;3.80;;;;;;;;;;5035401;28;20423;-80
2023/05/07 02:22:14;;;;;;;5.10;3.90;;;;;;;;;;5035682;28;20424;-79
2023/05/07 02:24:40;;;;;;;6.60;3.60;;;;;;;;;;5035559;28;20979;-80
2023/05/07 02:27:06;;;;;;;7.30;4.83;;;;;;;;;;5035524;28;20423;-79
2023/05/07 02:29:32;;;;;;;5.87;3.80;;;;;;;;;;5035649;28;20408;-81
2023/05/07 02:31:58;;;;;;;5.07;3.80;;;;;;;;;;5017647;28;20495;-81
2023/05/07 02:34:24;;;;;;;4.97;3.43;;;;;;;;;;5035107;28;20420;-81
2023/05/07 02:36:49;;;;;;;6.53;3.93;;;;;;;;;;5035374;28;20228;-81
2023/05/07 02:39:16;;;;;;;7.10;3.90;;;;;;;;;;4995092;28;20527;-81
2023/05/07 02:41:42;;;;;;;5.13;3.47;;;;;;;;;;5035336;28;20505;-80
2023/05/07 02:44:07;;;;;;;6.37;4.13;;;;;;;;;;5035319;28;20428;-81
2023/05/07 02:46:33;;;;;;;6.50;4.70;;;;;;;;;;5017538;28;20177;-82
2023/05/07 02:48:59;;;;;;;5.10;3.77;;;;;;;;;;5017067;28;20942;-83
2023/05/07 02:51:27;;;;;;;7.60;4.40;;;;;;;;;;5035045;28;20463;-81
2023/05/07 02:53:52;;;;;;;5.97;5.20;;;;;;;;;;5017276;28;20269;-81
2023/05/07 02:56:18;;;;;;;7.20;4.90;;;;;;;;;;5035145;28;20539;-80
2023/05/07 02:58:44;;;;;;;7.20;5.07;;;;;;;;;;5035268;28;20416;-83
2023/05/07 03:01:11;;;;;;;6.03;4.43;;;;;;;;;;5017428;28;20444;-82
2023/05/07 03:03:37;;;;;;;6.03;4.30;;;;;;;;;;5016616;28;20433;-80
2023/05/07 03:06:03;;;;;;;6.53;4.70;;;;;;;;;;5034911;28;20415;-84
2023/05/07 03:08:29;;;;;;;7.63;4.10;;;;;;;;;;5017134;28;20778;-83
2023/05/07 03:10:55;;;;;;;7.20;4.30;;;;;;;;;;5034675;28;20419;-83
2023/05/07 03:13:21;;;;;;;6.33;4.60;;;;;;;;;;5016936;28;20431;-83
2023/05/07 03:15:46;;;;;;;6.97;4.87;;;;;;;;;;5034712;28;20405;-83
2023/05/07 03:18:12;;;;;;;4.53;2.97;;;;;;;;;;5034370;28;20506;-83
2023/05/07 03:20:38;;;;;;;4.90;3.80;;;;;;;;;;5016720;28;20429;-83
2023/05/07 03:23:04;;;;;;;7.30;4.13;;;;;;;;;;5034501;28;20409;-83
2023/05/07 03:25:30;;;;;;;5.40;4.40;;;;;;;;;;5034505;28;20412;-84
2023/05/07 03:27:56;;;;;;;8.80;4.80;;;;;;;;;;5034466;28;20470;-84
2023/05/07 03:30:22;;;;;;;6.10;4.80;;;;;;;;;;5016688;28;20856;-85
2023/05/07 03:32:48;;;;;;;6.57;4.10;;;;;;;;;;5034340;28;20583;-84
2023/05/07 03:35:14;;;;;;;7.07;4.10;;;;;;;;;;5034044;28;20415;-84
2023/05/07 03:37:41;;;;;;;7.37;4.17;;;;;;;;;;5016470;28;20594;-84
2023/05/07 03:40:08;;;;;;;9.37;5.90;;;;;;;;;;5034330;28;20419;-83
2023/05/07 03:42:33;;;;;;;6.43;4.90;;;;;;;;;;5034128;28;20416;-84
2023/05/07 03:44:59;;;;;;;8.07;5.07;;;;;;;;;;5034106;28;20408;-84
2023/05/07 03:47:25;;;;;;;6.20;4.00;;;;;;;;;;5034001;28;20426;-85
2023/05/07 03:49:52;;;;;;;7.90;5.30;;;;;;;;;;4959400;28;20768;-83
2023/05/07 03:52:23;;;;;;;8.60;5.43;;;;;;;;;;5014191;28;20503;-83
2023/05/07 03:54:49;;;;;;;6.63;4.67;;;;;;;;;;5014144;28;20493;-84
2023/05/07 03:57:15;;;;;;;6.00;4.53;;;;;;;;;;5014254;28;20451;-83
2023/05/07 03:59:41;;;;;;;7.77;4.40;;;;;;;;;;5014140;28;20428;-85
2023/05/07 04:02:07;;;;;;;7.70;5.20;;;;;;;;;;5014109;28;20408;-83
2023/05/07 04:04:33;;;;;;;5.00;4.40;;;;;;;;;;5013747;28;20401;-82
2023/05/07 04:07:00;;;;;;;5.27;4.50;;;;;;;;;;5013967;28;20475;-83
2023/05/07 04:09:26;;;;;;;7.70;4.60;;;;;;;;;;5014046;28;20842;-83
2023/05/07 04:11:52;;;;;;;5.00;4.23;;;;;;;;;;5013858;28;20505;-84
2023/05/07 04:14:18;;;;;;;6.00;3.90;;;;;;;;;;5012336;28;20232;-84
2023/05/07 04:16:43;;;;;;;9.23;5.60;;;;;;;;;;5013359;28;20457;-83
2023/05/07 04:19:09;;;;;;;6.37;4.97;;;;;;;;;;5013566;28;20771;-81
2023/05/07 04:21:35;;;;;;;5.20;3.90;;;;;;;;;;5013796;28;20432;-84
2023/05/07 04:24:03;;;;;;;6.40;5.10;;;;;;;;;;5013688;28;20490;-83
2023/05/07 04:26:29;;;;;;;5.63;4.00;;;;;;;;;;5013746;28;20788;-84
2023/05/07 04:28:55;;;;;;;5.57;3.87;;;;;;;;;;5013917;28;20408;-80
2023/05/07 04:31:21;;;;;;;5.20;4.10;;;;;;;;;;5013462;28;20213;-81
2023/05/07 04:33:47;;;;;;;7.07;3.87;;;;;;;;;;5013039;28;20903;-82
2023/05/07 04:36:12;;;;;;;5.80;4.70;;;;;;;;;;5012648;28;20918;-89
2023/05/07 04:38:41;;;;;;;6.23;4.27;;;;;;;;;;5014150;28;20429;-85
2023/05/07 04:41:07;;;;;;;6.50;5.60;;;;;;;;;;5008209;28;20425;-90
2023/05/07 04:43:33;;;;;;;6.03;3.50;;;;;;;;;;5013820;28;20922;-90
2023/05/07 04:45:59;;;;;;;6.07;4.27;;;;;;;;;;5014205;28;20444;-87
2023/05/07 04:48:26;;;;;;;5.83;4.10;;;;;;;;;;4995054;28;20946;-85
2023/05/07 04:50:52;;;;;;;4.13;3.20;;;;;;;;;;4978971;28;20958;-88
2023/05/07 04:53:18;;;;;;;7.40;4.93;;;;;;;;;;4993789;28;20474;-85
2023/05/07 04:55:45;;;;;;;4.53;4.03;;;;;;;;;;4993839;28;20453;-85
2023/05/07 04:58:11;;;;;;;5.60;4.07;;;;;;;;;;4994062;28;20451;-87
2023/05/07 05:00:36;;;;;;;5.23;2.97;;;;;;;;;;4994004;28;20899;-87
2023/05/07 05:03:03;;;;;;;5.00;2.90;;;;;;;;;;4993383;28;20435;-81
2023/05/07 05:05:29;;;;;;;7.60;4.57;;;;;;;;;;4993611;28;20982;-85
2023/05/07 05:07:56;;;;;;;5.57;3.90;;;;;;;;;;4993771;28;20454;-90
2023/05/07 05:10:22;;;;;;;7.70;5.50;;;;;;;;;;4993785;28;20414;-89
2023/05/07 05:12:48;;;;;;;4.40;3.30;;;;;;;;;;4996373;28;20571;-87
2023/05/07 05:15:14;;;;;;;6.17;3.60;;;;;;;;;;5006982;28;20517;-85
2023/05/07 05:17:40;;;;;;;9.27;4.57;;;;;;;;;;5012189;28;20800;-90
2023/05/07 05:20:07;;;;;;;6.10;3.70;;;;;;;;;;5012907;28;20418;-86
2023/05/07 05:22:33;;;;;;;7.10;4.53;;;;;;;;;;5013016;28;20449;-85
2023/05/07 05:24:59;;;;;;;6.67;4.70;;;;;;;;;;5012904;28;20476;-87
2023/05/07 05:27:25;;;;;;;4.73;3.83;;;;;;;;;;5015514;28;20417;-84
2023/05/07 05:29:51;;;;;;;5.43;3.37;;;;;;;;;;5015610;28;20486;-88
2023/05/07 05:32:19;;;;;;;6.20;4.53;;;;;;;;;;5016664;28;20472;-86
2023/05/07 05:34:45;;;;;;;5.90;4.57;;;;;;;;;;5016632;28;20912;-86
2023/05/07 05:37:11;;;;;;;5.60;4.03;;;;;;;;;;5015448;28;20524;-86
2023/05/07 05:39:37;;;;;;;6.70;4.50;;;;;;;;;;5016682;28;20233;-85
2023/05/07 05:42:03;;;;;;;5.30;4.33;;;;;;;;;;5015286;28;20416;-83
2023/05/07 05:44:29;;;;;;;5.87;3.90;;;;;;;;;;5016539;28;20414;-85
2023/05/07 05:46:57;;;;;;;3.67;2.63;;;;;;;;;;5016490;28;20607;-85
2023/05/07 05:49:23;;;;;;;7.17;3.77;;;;;;;;;;5019798;28;20442;-85
2023/05/07 05:51:49;;;;;;;6.07;4.63;;;;;;;;;;5017149;28;20469;-86
2023/05/07 05:54:15;;;;;;;4.90;3.87;;;;;;;;;;5016353;28;20507;-87
2023/05/07 05:56:41;;;;;;;4.40;2.97;;;;;;;;;;5016302;28;20466;-86
2023/05/07 05:59:07;;;;;;;5.30;3.90;;;;;;;;;;5016611;28;20406;-87
2023/05/07 06:01:33;;;;;;;6.77;4.10;;;;;;;;;;5016330;28;20434;-85
2023/05/07 06:03:58;;;;;;;6.50;4.27;;;;;;;;;;5015926;28;20425;-86
2023/05/07 06:06:25;;;;;;;5.70;4.40;;;;;;;;;;4998908;28;20418;-87
2023/05/07 06:08:51;;;;;;;6.30;3.77;;;;;;;;;;4998767;28;20815;-86
2023/05/07 06:11:17;;;;;;;7.17;5.00;;;;;;;;;;5016290;28;20454;-86
2023/05/07 06:13:43;;;;;;;5.80;4.20;;;;;;;;;;5016731;28;20422;-87
2023/05/07 06:16:09;;;;;;;6.93;3.87;;;;;;;;;;5012562;28;20426;-85
2023/05/07 06:18:37;;;;;;;6.43;4.07;;;;;;;;;;5015918;28;20954;-86
2023/05/07 06:21:04;;;;;;;5.43;2.87;;;;;;;;;;5014684;28;20424;-87
2023/05/07 06:23:29;;;;;;;9.57;4.50;;;;;;;;;;5015916;28;20865;-87
2023/05/07 06:26:04;;;;;;;5.00;3.43;;;;;;;;;;5015747;28;20449;-87
2023/05/07 06:28:35;;;;;;;7.57;4.10;;;;;;;;;;5014852;28;20778;-88
2023/05/07 06:31:11;;;;;;;5.80;4.30;;;;;;;;;;5015763;28;20402;-87
2023/05/07 06:33:37;;;;;;;4.80;3.57;;;;;;;;;;5015763;28;20414;-88
2023/05/07 06:36:03;;;;;;;5.60;4.23;;;;;;;;;;5015976;28;20417;-86
2023/05/07 06:38:29;;;;;;;6.10;4.03;;;;;;;;;;5014783;28;20422;-88
2023/05/07 06:40:56;;;;;;;9.40;3.37;;;;;;;;;;5015906;28;20800;-89
2023/05/07 06:43:22;;;;;;;7.57;3.80;;;;;;;;;;5015821;28;20421;-87
2023/05/07 06:45:48;;;;;;;5.73;4.10;;;;;;;;;;5015719;28;20413;-89
2023/05/07 06:48:14;;;;;;;3.90;2.50;;;;;;;;;;5015170;28;20413;-87
2023/05/07 06:50:40;;;;;;;5.60;3.33;;;;;;;;;;5015772;28;20438;-86
2023/05/07 06:53:06;;;;;;;5.80;3.60;;;;;;;;;;4997713;28;20491;-85
2023/05/07 06:55:32;;;;;;;4.73;2.90;;;;;;;;;;5015265;28;20418;-85
2023/05/07 06:58:00;;;;;;;4.80;3.37;;;;;;;;;;5015620;28;20416;-87
2023/05/07 07:00:26;;;;;;;5.23;3.80;;;;;;;;;;5015368;28;20501;-86
2023/05/07 07:02:52;;;;;;;5.17;4.07;;;;;;;;;;5014678;28;20461;-88
2023/05/07 07:05:18;;;;;;;5.57;3.57;;;;;;;;;;5015112;28;20410;-87
2023/05/07 07:07:44;;;;;;;5.10;4.30;;;;;;;;;;5015053;28;20193;-87
2023/05/07 07:10:10;;;;;;;4.93;3.50;;;;;;;;;;5015222;28;20771;-88
2023/05/07 07:12:36;;;;;;;6.77;3.63;;;;;;;;;;5015204;28;20528;-87
2023/05/07 07:15:02;;;;;;;4.97;3.00;;;;;;;;;;5015041;28;20415;-84
2023/05/07 07:17:28;;;;;;;4.03;2.73;;;;;;;;;;5014702;28;20186;-87
2023/05/07 07:19:54;;;;;;;2.43;1.80;;;;;;;;;;5014931;28;20776;-81
2023/05/07 07:22:20;;;;;;;8.73;3.73;;;;;;;;;;5014894;28;20414;-86
2023/05/07 07:24:46;;;;;;;5.40;2.77;;;;;;;;;;5014968;28;20553;-81
2023/05/07 07:27:12;;;;;;;4.97;3.57;;;;;;;;;;5014803;28;20176;-84
2023/05/07 07:29:38;;;;;;;9.13;4.60;;;;;;;;;;5013567;28;20451;-86
2023/05/07 07:32:04;;;;;;;6.10;5.60;;;;;;;;;;5014702;28;20558;-83
2023/05/07 07:34:30;;;;;;;5.43;3.77;;;;;;;;;;5014450;28;20818;-86
2023/05/07 07:36:56;;;;;;;4.67;2.87;;;;;;;;;;5014790;28;20418;-89
2023/05/07 07:39:22;;;;;;;4.50;3.17;;;;;;;;;;5014831;28;20774;-84
2023/05/07 07:41:47;;;;;;;4.10;2.77;;;;;;;;;;5014522;28;20505;-84
2023/05/07 07:44:13;;;;;;;3.50;2.60;;;;;;;;;;5014676;28;20509;-82
2023/05/07 07:46:39;;;;;;;4.67;3.23;;;;;;;;;;5014486;28;20433;-83
2023/05/07 07:49:05;;;;;;;4.13;3.00;;;;;;;;;;5014086;28;20411;-84
2023/05/07 07:51:31;;;;;;;3.70;2.70;;;;;;;;;;5014332;28;20548;-82
2023/05/07 07:53:57;;;;;;;3.80;3.00;;;;;;;;;;5014262;28;20466;-87
2023/05/07 07:56:23;;;;;;;4.23;2.93;;;;;;;;;;5014322;28;20682;-82
2023/05/07 07:58:49;;;;;;;4.33;3.23;;;;;;;;;;5014445;28;20410;-87
2023/05/07 08:01:16;;;;;;;4.50;2.80;;;;;;;;;;5013383;28;20915;-86
2023/05/07 08:03:42;;;;;;;3.40;3.03;;;;;;;;;;5012703;28;20434;-88
2023/05/07 08:06:08;;;;;;;4.80;3.10;;;;;;;;;;5012999;28;20448;-85
2023/05/07 08:08:34;;;;;;;4.47;2.97;;;;;;;;;;5014517;28;20176;-87
2023/05/07 08:11:00;;;;;;;4.70;3.03;;;;;;;;;;5014149;28;20490;-87
2023/05/07 08:13:26;;;;;;;3.70;2.80;;;;;;;;;;5014016;28;20415;-88
2023/05/07 08:15:55;;;;;;;3.17;2.77;;;;;;;;;;5013929;28;20415;-87
2023/05/07 08:18:20;;;;;;;3.50;3.10;;;;;;;;;;5013634;28;20473;-88
2023/05/07 08:20:47;;;;;;;5.67;2.97;;;;;;;;;;5013879;28;20956;-86
2023/05/07 08:23:13;;;;;;;4.83;3.00;;;;;;;;;;5013785;28;20419;-89
2023/05/07 08:25:39;;;;;;;4.67;3.93;;;;;;;;;;4996083;28;20419;-82
2023/05/07 08:28:05;;;;;;;4.50;3.60;;;;;;;;;;5013819;28;20407;-87
2023/05/07 08:30:31;;;;;;;5.30;3.40;;;;;;;;;;5013752;28;20411;-87
2023/05/07 08:32:57;;;;;;;4.17;3.40;;;;;;;;;;5013330;28;20561;-86
2023/05/07 08:35:23;;;;;;;4.57;3.50;;;;;;;;;;5013617;28;20175;-86
2023/05/07 08:37:49;;;;;;;3.47;3.00;;;;;;;;;;5012508;28;20521;-87
2023/05/07 08:40:15;;;;;;;3.83;2.80;;;;;;;;;;5012187;28;20450;-86
2023/05/07 08:42:41;;;;;;;5.37;3.67;;;;;;;;;;5013638;28;20420;-87
2023/05/07 08:45:10;;;;;;;4.37;3.70;;;;;;;;;;5013622;28;20427;-88
2023/05/07 08:47:47;;;;;;;3.50;2.73;;;;;;;;;;5013162;28;20425;-87
2023/05/07 08:50:13;;;;;;;3.90;2.77;;;;;;;;;;5013481;28;20888;-83
2023/05/07 08:52:48;;;;;;;4.67;3.47;;;;;;;;;;5013238;28;20475;-86
2023/05/07 08:55:15;;;;;;;3.67;2.03;;;;;;;;;;5013444;28;20414;-85
2023/05/07 08:57:41;;;;;;;5.90;3.10;;;;;;;;;;5013363;28;20403;-86
2023/05/07 09:00:07;;;;;;;4.77;3.33;;;;;;;;;;5013310;28;20412;-88
2023/05/07 09:02:36;;;;;;;4.20;2.73;;;;;;;;;;5012472;28;20450;-85
2023/05/07 09:05:02;;;;;;;4.47;3.47;;;;;;;;;;5013340;28;20421;-89
2023/05/07 09:07:27;;;;;;;5.50;2.30;;;;;;;;;;5013470;28;20414;-84
2023/05/07 09:09:57;;;;;;;3.70;2.80;;;;;;;;;;4995933;28;20490;-85
2023/05/07 09:12:23;;;;;;;3.17;2.20;;;;;;;;;;4987456;28;20575;-82
2023/05/07 09:14:49;;;;;;;4.00;3.20;;;;;;;;;;5008338;28;20505;-85
2023/05/07 09:17:18;;;;;;;4.13;2.80;;;;;;;;;;5012380;28;20419;-84
2023/05/07 09:19:48;;;;;;;4.10;3.17;;;;;;;;;;5012596;28;20823;-83
2023/05/07 09:22:14;;;;;;;3.03;2.23;;;;;;;;;;5012474;28;20421;-81
2023/05/07 09:24:40;;;;;;;6.40;4.20;;;;;;;;;;5012640;28;20412;-88
2023/05/07 09:27:06;;;;;;;4.20;2.13;;;;;;;;;;5012693;28;21013;-83
2023/05/07 09:29:35;;;;;;;3.47;2.60;;;;;;;;;;5012739;28;20472;-86
2023/05/07 09:32:02;;;;;;;4.50;2.87;;;;;;;;;;5012380;28;20472;-83
2023/05/07 09:34:29;;;;;;;3.53;2.50;;;;;;;;;;5012784;28;20749;-88
2023/05/07 09:37:02;;;;;;;4.93;2.27;;;;;;;;;;5012294;28;20493;-83
2023/05/07 09:39:39;;;;;;;6.77;2.70;;;;;;;;;;5012589;28;20427;-87
2023/05/07 09:42:05;;;;;;;3.80;2.77;;;;;;;;;;5016710;28;20499;-88
2023/05/07 09:44:32;;;;;;;4.77;3.07;;;;;;;;;;5003292;28;20456;-85
2023/05/07 09:47:00;;;;;;;5.90;3.80;;;;;;;;;;5018032;28;20989;-81
2023/05/07 09:49:29;;;;;;;3.77;2.87;;;;;;;;;;5021862;28;20895;-89
2023/05/07 09:51:56;;;;;;;3.10;2.80;;;;;;;;;;5016802;28;20467;-85
2023/05/07 09:54:22;;;;;;;4.20;2.70;;;;;;;;;;5021385;28;20516;-83
2023/05/07 09:56:52;;;;;;;5.67;2.87;;;;;;;;;;5002864;28;20583;-85
2023/05/07 09:59:19;;;;;;;5.80;3.70;;;;;;;;;;5003208;28;20414;-83
2023/05/07 10:01:45;;;;;;;4.63;3.20;;;;;;;;;;5031399;28;20428;-89
2023/05/07 10:04:11;;;;;;;4.37;2.90;;;;;;;;;;5023441;28;20402;-85
2023/05/07 10:06:38;;;;;;;4.40;2.50;;;;;;;;;;5018359;28;20469;-88
2023/05/07 10:09:08;;;;;;;4.10;2.00;;;;;;;;;;5021786;28;20756;-83
2023/05/07 10:11:35;;;;;;;4.17;2.23;;;;;;;;;;5012427;28;20460;-85
2023/05/07 10:14:02;;;;;;;5.23;2.70;;;;;;;;;;5022395;28;20438;-84
2023/05/07 10:16:28;;;;;;;5.23;2.80;;;;;;;;;;5025472;28;20401;-87
2023/05/07 10:18:54;;;;;;;3.97;2.70;;;;;;;;;;5025017;28;20417;-85
2023/05/07 10:21:21;;;;;;;4.17;2.37;;;;;;;;;;5023941;28;20467;-85
2023/05/07 10:23:50;;;;;;;2.90;1.87;;;;;;;;;;5025615;28;20828;-87
2023/05/07 10:26:17;;;;;;;2.80;2.53;;;;;;;;;;5025625;28;20414;-84
2023/05/07 10:28:47;;;;;;;5.40;2.57;;;;;;;;;;5023975;28;21135;-88
2023/05/07 10:31:25;;;;;;;3.00;2.50;;;;;;;;;;5007650;28;20413;-85
2023/05/07 10:33:52;;;;;;;3.93;3.50;;;;;;;;;;5022823;28;20645;-86
2023/05/07 10:36:19;;;;;;;4.13;2.40;;;;;;;;;;5005908;28;20417;-84
2023/05/07 10:38:46;;;;;;;3.17;2.57;;;;;;;;;;4995645;28;20466;-88
2023/05/07 10:41:12;;;;;;;4.37;3.10;;;;;;;;;;4995796;28;20419;-86
2023/05/07 10:43:41;;;;;;;4.33;2.50;;;;;;;;;;4995628;28;20477;-86
2023/05/07 10:46:20;;;;;;;3.50;2.30;;;;;;;;;;4994657;28;20901;-86
2023/05/07 10:49:02;;;;;;;3.33;2.40;;;;;;;;;;4995212;28;20423;-87
2023/05/07 10:51:29;;;;;;;2.97;2.60;;;;;;;;;;5031115;28;20463;-87
2023/05/07 10:54:11;;;;;;;3.60;3.10;;;;;;;;;;5032519;28;20469;-84
2023/05/07 10:56:42;;;;;;;3.50;2.23;;;;;;;;;;5023992;28;20416;-86
2023/05/07 10:59:20;;;;;;;4.53;2.90;;;;;;;;;;5021841;28;20449;-86
2023/05/07 11:01:51;;;;;;;4.83;3.53;;;;;;;;;;5021059;28;20459;-86
2023/05/07 11:04:24;;;;;;;2.70;2.40;;;;;;;;;;5023577;28;20432;-84
2023/05/07 11:07:09;;;;;;;2.70;2.17;;;;;;;;;;5022057;28;20414;-87
2023/05/07 11:09:55;;;;;;;4.17;1.93;;;;;;;;;;5005824;28;20407;-88
2023/05/07 11:12:40;;;;;;;3.17;2.87;;;;;;;;;;5024338;28;20495;-88
2023/05/07 11:15:10;;;;;;;3.83;2.13;;;;;;;;;;5017414;28;20404;-86
2023/05/07 11:17:53;;;;;;;2.90;2.23;;;;;;;;;;5024380;28;20419;-86
2023/05/07 11:20:19;;;;;;;2.20;1.80;;;;;;;;;;5023959;28;20403;-85
2023/05/07 11:22:45;;;;;;;2.20;1.83;;;;;;;;;;5002659;28;20487;-86
2023/05/07 11:25:11;;;;;;;2.37;1.80;;;;;;;;;;5022587;28;20911;-87
2023/05/07 11:27:37;;;;;;;2.77;2.53;;;;;;;;;;5023174;28;20531;-81
2023/05/07 11:30:03;;;;;;;2.10;1.23;;;;;;;;;;5007919;28;20510;-83
2023/05/07 11:32:30;;;;;;;3.30;2.30;;;;;;;;;;5022908;28;20530;-82
2023/05/07 11:34:57;;;;;;;2.23;1.60;;;;;;;;;;5024239;28;20419;-84
2023/05/07 11:37:23;;;;;;;1.80;1.20;;;;;;;;;;5004924;28;20502;-83
2023/05/07 11:39:54;;;;;;;4.87;2.20;;;;;;;;;;5006282;28;20432;-85
2023/05/07 11:42:30;;;;;;;3.50;1.60;;;;;;;;;;5024480;28;20418;-82
2023/05/07 11:44:56;;;;;;;3.70;2.50;;;;;;;;;;5023801;28;20406;-85
2023/05/07 11:47:22;;;;;;;2.57;1.63;;;;;;;;;;5017732;28;20418;-81
2023/05/07 11:49:58;;;;;;;3.57;1.80;;;;;;;;;;5018298;28;20429;-80
2023/05/07 11:52:24;;;;;;;3.00;2.37;;;;;;;;;;5013865;28;20505;-82
2023/05/07 11:54:54;;;;;;;3.10;1.60;;;;;;;;;;5013792;28;20467;-85
2023/05/07 11:57:21;;;;;;;1.87;1.57;;;;;;;;;;5014041;28;20412;-86
2023/05/07 11:59:48;;;;;;;1.90;1.00;;;;;;;;;;5013894;28;20735;-87
2023/05/07 12:02:17;;;;;;;3.43;1.67;;;;;;;;;;5005102;28;20443;-87
2023/05/07 12:04:44;;;;;;;2.93;1.70;;;;;;;;;;5017338;28;20450;-83
2023/05/07 12:07:13;;;;;;;2.40;1.60;;;;;;;;;;5015594;28;20422;-85
2023/05/07 12:09:40;;;;;;;3.90;2.00;;;;;;;;;;5000448;28;20435;-85
2023/05/07 12:12:06;;;;;;;1.63;1.03;;;;;;;;;;4995942;28;20481;-85
2023/05/07 12:14:32;;;;;;;1.70;0.90;;;;;;;;;;4996172;28;20418;-85
2023/05/07 12:16:58;;;;;;;1.60;0.73;;;;;;;;;;5012801;28;20452;-85
2023/05/07 12:19:24;;;;;;;1.67;1.07;;;;;;;;;;5013535;28;20877;-86
2023/05/07 12:21:50;;;;;;;1.20;0.80;;;;;;;;;;5013601;28;20511;-85
2023/05/07 12:24:16;;;;;;;1.40;0.90;;;;;;;;;;5013621;28;20777;-85
2023/05/07 12:26:43;;;;;;;2.50;1.60;;;;;;;;;;5013625;28;20456;-86
2023/05/07 12:29:09;;;;;;;2.60;1.47;;;;;;;;;;5013581;28;20835;-89
2023/05/07 12:31:35;;;;;;;2.30;1.70;;;;;;;;;;5012745;28;20546;-88
2023/05/07 12:34:02;;;;;;;2.90;1.60;;;;;;;;;;5013387;28;20805;-85
2023/05/07 12:36:37;;;;;;;1.70;1.30;;;;;;;;;;5014423;28;20837;-88
2023/05/07 12:39:04;;;;;;;1.63;1.40;;;;;;;;;;5013942;28;20426;-83
2023/05/07 12:41:30;;;;;;;1.93;1.03;;;;;;;;;;5013490;28;20509;-84
2023/05/07 12:43:57;;;;;;;1.10;0.97;;;;;;;;;;4995963;28;20511;-83
2023/05/07 12:46:23;;;;;;;1.47;1.17;;;;;;;;;;5012601;28;20171;-87
2023/05/07 12:48:49;;;;;;;2.30;1.03;;;;;;;;;;5013409;28;20408;-84
2023/05/07 12:51:16;;;;;;;1.20;1.10;;;;;;;;;;5013445;28;20478;-83
2023/05/07 12:53:42;;;;;;;1.40;0.70;;;;;;;;;;5013348;28;20470;-85
2023/05/07 12:56:08;;;;;;;1.80;1.33;;;;;;;;;;5012511;28;20741;-84
2023/05/07 12:58:35;;;;;;;2.23;0.97;;;;;;;;;;4994794;28;20945;-85
2023/05/07 13:01:05;;;;;;;2.50;1.73;;;;;;;;;;4994877;28;20937;-84
2023/05/07 13:03:32;;;;;;;1.47;0.70;;;;;;;;;;5012306;28;20470;-86
2023/05/07 13:06:01;;;;;;;1.93;1.10;;;;;;;;;;5012185;28;20517;-85
2023/05/07 13:08:28;;;;;;;1.33;1.20;;;;;;;;;;4995935;28;20830;-84
2023/05/07 13:10:55;;;;;;;3.37;1.20;;;;;;;;;;5013496;28;20468;-88
2023/05/07 13:13:21;;;;;;;1.47;1.37;;;;;;;;;;5013019;28;20484;-83
2023/05/07 13:15:47;;;;;;;1.47;0.50;;;;;;;;;;5012452;28;20512;-85
2023/05/07 13:18:14;;;;;;;2.27;1.10;;;;;;;;;;4995115;28;20412;-85
2023/05/07 13:20:40;;;;;;;1.70;0.93;;;;;;;;;;5013738;28;20440;-87
2023/05/07 13:23:09;;;;;;;1.70;1.03;;;;;;;;;;5013022;28;20471;-85
2023/05/07 13:25:35;;;;;;;1.10;0.80;;;;;;;;;;4995376;28;20407;-84
2023/05/07 13:28:01;;;;;;;1.47;1.00;;;;;;;;;;5012697;28;20420;-89
2023/05/07 13:30:26;;;;;;;1.47;1.27;;;;;;;;;;5012445;28;20504;-84
2023/05/07 13:32:55;;;;;;;1.37;0.77;;;;;;;;;;5012750;28;21046;-85
2023/05/07 13:35:21;;;;;;;2.00;0.80;;;;;;;;;;5012658;28;20175;-83
2023/05/07 13:37:51;;;;;;;1.43;0.60;;;;;;;;;;4995152;28;20433;-83
2023/05/07 13:40:18;;;;;;;0.83;0.30;;;;;;;;;;5013131;28;20418;-85
2023/05/07 13:42:44;;;;;;;1.13;0.97;;;;;;;;;;5012276;28;20983;-84
2023/05/07 13:45:13;;;;;;;1.30;0.60;;;;;;;;;;5012838;28;20411;-88
2023/05/07 13:47:39;;;;;;;1.40;1.00;;;;;;;;;;5013773;28;20423;-85
2023/05/07 13:50:06;;;;;;;2.00;1.23;;;;;;;;;;4998874;28;20480;-83
2023/05/07 13:52:32;;;;;;;1.00;0.70;;;;;;;;;;4998769;28;20537;-83
2023/05/07 13:54:58;;;;;;;1.27;0.83;;;;;;;;;;5016552;28;20797;-87
2023/05/07 13:57:30;;;;;;;1.97;1.80;;;;;;;;;;4998371;28;20777;-85
2023/05/07 13:59:56;;;;;;;1.00;0.37;;;;;;;;;;4998625;28;20919;-83
2023/05/07 14:02:22;;;;;;;1.40;0.70;;;;;;;;;;5015953;28;20500;-85
2023/05/07 14:04:48;;;;;;;2.27;0.70;;;;;;;;;;5016210;28;21088;-83
2023/05/07 14:07:14;;;;;;;1.00;0.63;;;;;;;;;;5016235;28;20225;-82
2023/05/07 14:09:40;;;;;;;2.53;1.07;;;;;;;;;;4998388;28;20418;-85
2023/05/07 14:12:06;;;;;;;1.90;1.40;;;;;;;;;;4997871;28;20484;-85
2023/05/07 14:14:32;;;;;;;1.03;0.87;;;;;;;;;;5016046;28;20429;-84
2023/05/07 14:16:58;;;;;;;1.17;0.77;;;;;;;;;;5014269;28;20801;-85
2023/05/07 14:19:24;;;;;;;1.23;0.63;;;;;;;;;;5015067;28;20430;-83
2023/05/07 14:21:50;;;;;;;1.50;1.23;;;;;;;;;;5015352;28;20207;-83
2023/05/07 14:24:16;;;;;;;1.53;0.60;;;;;;;;;;5015230;28;20430;-84
2023/05/07 14:26:42;;;;;;;1.40;0.80;;;;;;;;;;5015238;28;20897;-83
2023/05/07 14:29:08;;;;;;;1.27;0.70;;;;;;;;;;5015244;28;20510;-83
2023/05/07 14:31:34;;;;;;;1.33;0.50;;;;;;;;;;5014839;28;20555;-84
2023/05/07 14:34:00;;;;;;;0.77;0.50;;;;;;;;;;5015358;28;20427;-83
2023/05/07 14:36:26;;;;;;;0.90;0.50;;;;;;;;;;4997000;28;20946;-86
2023/05/07 14:38:54;;;;;;;1.10;0.60;;;;;;;;;;5014880;28;20785;-84
2023/05/07 14:41:21;;;;;;;1.27;0.60;;;;;;;;;;5014432;28;20466;-86